CheckWX is a tool to help pilots better visualize weather data.  It is not intended as a substitute for an official pre-flight weather briefing.

06:31:12 UTC

EGUN METAR
RAF Mildenhall Airport
Mildenhall, United Kingdom
Current

35 mins ago

EGUN 230556Z AUTO 09008KT 9999 CLR 11/07 A2949 RMK AO2 SLP989 T01110070 10128 20108 57008 $
Observed
Apr-23 @ 05:56 UTC
Wind
  • 090° at 8 KTS
Visibility
10,000+ meters
Flight Rules
VFR
Cloud Levels
  • Clear skies
Temperature
11°C / 52°F
Dewpoint
C / 45°F
Humidity
77%
Altimeter
29.49" Hg
Pressure
998.62 hPa
Previous

35 mins ago

EGUN 230556Z AUTO 09008KT 9999 CLR 11/07 A2949 RMK AO2 SLP989 T01110070 10128 20108 57008 .
Observed
Apr-23 @ 05:56 UTC
Wind
  • 090° at 8 KTS
Visibility
10,000+ meters
Flight Rules
VFR
Cloud Levels
  • Clear skies
Temperature
11°C / 52°F
Dewpoint
C / 45°F
Humidity
77%
Altimeter
29.49" Hg
Pressure
998.62 hPa
Previous

2 hours ago

EGUN 230456Z AUTO 09006KT 9999 CLR 11/07 A2950 RMK AO2 SLP993 T01110066 $
Observed
Apr-23 @ 04:56 UTC
Wind
  • 090° at 6 KTS
Visibility
10,000+ meters
Flight Rules
VFR
Cloud Levels
  • Clear skies
Temperature
11°C / 52°F
Dewpoint
C / 45°F
Humidity
77%
Altimeter
29.5" Hg
Pressure
999.02 hPa